createdAt,value
2018-06-30T16:11:20.496Z,41.10
2018-06-30T16:13:48.948Z,40.10
2018-06-30T16:16:17.276Z,40.80
2018-06-30T16:18:45.607Z,40.60
2018-06-30T16:21:13.984Z,43.20
2018-06-30T16:23:42.335Z,40.80
2018-06-30T16:26:10.735Z,40.60
2018-06-30T16:28:39.069Z,40.60
2018-06-30T16:31:07.371Z,39.40
2018-06-30T16:33:35.711Z,39.80
2018-06-30T16:36:04.031Z,39.20
2018-06-30T16:38:32.328Z,39.30
2018-06-30T16:41:00.663Z,39.80
2018-06-30T16:43:28.962Z,39.90
2018-06-30T16:45:57.260Z,40.90
2018-06-30T16:48:25.556Z,40.20
2018-06-30T16:50:53.893Z,40.60
2018-06-30T16:53:23.304Z,40.70
2018-06-30T16:55:52.360Z,41.20
2018-06-30T16:58:21.468Z,40.90
2018-06-30T17:00:50.574Z,41.50
2018-06-30T17:03:19.672Z,41.70
2018-06-30T17:05:48.756Z,41.40
2018-06-30T17:08:17.860Z,41.20
2018-06-30T17:10:46.935Z,43.50
2018-06-30T17:13:16.007Z,39.90
2018-06-30T17:15:45.308Z,40.40
2018-06-30T17:18:14.375Z,39.80
2018-06-30T17:20:43.458Z,39.60
2018-06-30T17:23:12.692Z,39.40
2018-06-30T17:25:41.755Z,38.80
2018-06-30T17:28:10.816Z,37.80
2018-06-30T17:30:39.912Z,38.70
2018-06-30T17:33:08.983Z,37.50
2018-06-30T17:35:38.060Z,37.20
2018-06-30T17:41:20.348Z,33.60
2018-06-30T17:43:49.549Z,32.50
2018-06-30T17:46:18.710Z,31.00
2018-06-30T17:48:47.836Z,32.30
2018-06-30T18:41:31.272Z,28.60
2018-06-30T18:46:29.126Z,27.90
2018-06-30T18:48:58.328Z,28.50
2018-06-30T19:36:20.588Z,30.00
2018-06-30T19:41:02.458Z,30.70
2018-06-30T19:43:31.584Z,30.40
2018-06-30T19:46:00.718Z,30.90
2018-06-30T19:48:29.833Z,32.10
2018-06-30T19:50:58.961Z,31.60
2018-06-30T19:53:28.099Z,32.80
2018-06-30T19:55:57.240Z,32.90
2018-06-30T19:58:26.316Z,32.80
2018-06-30T20:00:55.402Z,33.30
2018-06-30T20:03:24.580Z,33.80
2018-06-30T20:15:07.530Z,39.60
2018-06-30T20:22:34.040Z,36.40
2018-06-30T20:25:03.137Z,36.30
2018-06-30T20:27:32.208Z,35.80
2018-06-30T20:30:01.309Z,36.10
2018-06-30T20:32:30.669Z,36.00
2018-06-30T20:34:59.873Z,35.70
2018-06-30T20:37:28.967Z,35.80
2018-06-30T20:39:58.072Z,36.00
2018-06-30T20:42:27.147Z,36.00
2018-06-30T20:44:56.316Z,35.80
2018-06-30T20:47:25.392Z,35.70
2018-06-30T20:49:54.453Z,35.70
2018-06-30T20:52:23.552Z,36.30
2018-06-30T20:54:52.683Z,36.30
2018-06-30T20:57:21.770Z,36.60
2018-06-30T20:59:50.861Z,36.70
2018-06-30T21:02:19.945Z,36.90
2018-06-30T21:04:49.045Z,37.40
2018-06-30T21:07:18.140Z,36.60
2018-06-30T21:09:47.235Z,36.90
2018-06-30T21:12:16.299Z,36.70
2018-06-30T21:14:45.403Z,37.10
2018-06-30T21:17:14.488Z,36.80
2018-06-30T21:19:43.594Z,36.40
2018-06-30T21:22:12.857Z,36.40
2018-06-30T21:24:41.934Z,36.40
2018-06-30T21:27:11.013Z,36.10
2018-06-30T21:29:40.097Z,37.00
2018-06-30T21:32:09.167Z,35.80
2018-06-30T21:34:38.230Z,35.80
2018-06-30T21:37:07.324Z,35.90
2018-06-30T21:39:36.388Z,35.70
2018-06-30T21:42:05.449Z,35.80
2018-06-30T21:44:34.571Z,36.00
2018-06-30T21:47:03.659Z,36.20
2018-06-30T21:49:32.727Z,35.90
2018-06-30T21:52:01.781Z,35.70
2018-06-30T21:54:30.875Z,35.60
2018-06-30T21:56:59.953Z,35.60
2018-06-30T21:59:29.040Z,35.80
2018-06-30T22:01:58.113Z,35.90
2018-06-30T22:04:27.182Z,36.10
2018-06-30T22:06:56.297Z,35.90
2018-06-30T22:09:25.427Z,35.90
2018-06-30T22:11:54.500Z,36.30
2018-06-30T22:14:23.580Z,36.40
2018-06-30T22:16:52.623Z,36.70
2018-06-30T22:19:21.713Z,36.70
2018-06-30T22:21:50.775Z,37.00
2018-06-30T22:24:19.848Z,37.00
2018-06-30T22:26:48.932Z,37.10
2018-06-30T22:31:46.657Z,37.50
2018-06-30T22:34:15.743Z,37.40
2018-06-30T22:36:44.799Z,37.60
2018-06-30T22:39:13.844Z,37.60
2018-06-30T22:41:42.950Z,37.90
2018-06-30T22:44:11.983Z,38.30
2018-06-30T22:49:09.743Z,37.80
2018-06-30T22:51:38.800Z,38.40
2018-06-30T22:54:07.857Z,38.20
2018-06-30T22:56:36.906Z,38.40
2018-06-30T22:59:05.988Z,38.40
2018-06-30T23:01:35.110Z,38.60
2018-06-30T23:04:04.167Z,39.00
2018-06-30T23:06:33.215Z,38.70
2018-06-30T23:09:02.267Z,38.20
2018-06-30T23:11:31.318Z,38.70
2018-06-30T23:14:00.381Z,39.00
2018-06-30T23:16:29.464Z,39.20
2018-06-30T23:18:58.508Z,38.90
2018-06-30T23:23:56.264Z,39.30
2018-06-30T23:26:25.308Z,39.30
2018-06-30T23:28:54.376Z,39.50
2018-06-30T23:31:23.444Z,38.90
2018-06-30T23:33:52.515Z,39.30
2018-06-30T23:36:21.587Z,39.30
2018-06-30T23:38:50.647Z,39.80
2018-06-30T23:41:19.723Z,39.20
2018-06-30T23:43:48.780Z,39.20
2018-06-30T23:46:17.849Z,39.80
2018-06-30T23:51:15.571Z,39.20
2018-06-30T23:53:44.648Z,40.20
2018-06-30T23:56:13.706Z,39.30
2018-06-30T23:58:42.760Z,39.20
